createdAt,value
2022-11-19T00:00:51.393Z,92.35
2022-11-19T00:01:54.158Z,92.86
2022-11-19T00:02:51.962Z,92.76
2022-11-19T00:03:52.942Z,93.22
2022-11-19T00:04:51.558Z,93.28
2022-11-19T00:05:51.863Z,93.28
2022-11-19T00:06:54.104Z,92.86
2022-11-19T00:07:52.466Z,93.32
2022-11-19T00:08:52.765Z,93.74
2022-11-19T00:09:53.055Z,94.11
2022-11-19T00:10:53.367Z,93.70
2022-11-19T00:11:55.550Z,93.59
2022-11-19T00:12:53.924Z,93.74
2022-11-19T00:13:54.225Z,94.05
2022-11-19T00:14:54.525Z,94.15
2022-11-19T00:15:54.812Z,94.15
2022-11-19T00:16:57.015Z,94.05
2022-11-19T00:17:55.385Z,94.36
2022-11-19T00:18:57.584Z,94.46
2022-11-19T00:19:55.954Z,94.20
2022-11-19T00:20:56.256Z,94.36
2022-11-19T00:21:58.635Z,94.51
2022-11-19T00:22:56.888Z,94.82
2022-11-19T00:23:57.185Z,94.30
2022-11-19T00:24:57.486Z,94.67
2022-11-19T00:25:57.772Z,94.36
2022-11-19T00:26:58.076Z,94.15
2022-11-19T00:28:00.264Z,93.99
2022-11-19T00:29:00.496Z,93.99
2022-11-19T00:29:58.855Z,94.82
2022-11-19T00:30:59.145Z,94.82
2022-11-19T00:32:01.323Z,94.92
2022-11-19T00:33:01.543Z,94.61
2022-11-19T00:34:01.657Z,94.71
2022-11-19T00:35:00.305Z,94.92
2022-11-19T00:36:02.443Z,94.61
2022-11-19T00:37:00.819Z,94.61
2022-11-19T00:38:01.110Z,94.40
2022-11-19T00:39:03.293Z,93.99
2022-11-19T00:40:01.668Z,94.71
2022-11-19T00:41:02.906Z,94.65
2022-11-19T00:42:04.145Z,94.82
2022-11-19T00:43:02.738Z,94.76
2022-11-19T00:44:04.706Z,94.20
2022-11-19T00:45:03.076Z,94.40
2022-11-19T00:46:03.453Z,94.20
2022-11-19T00:47:03.742Z,94.61
2022-11-19T00:48:05.804Z,93.99
2022-11-19T00:49:05.998Z,94.09
2022-11-19T00:50:06.196Z,93.93
2022-11-19T00:51:06.411Z,94.09
2022-11-19T00:52:07.097Z,94.40
2022-11-19T00:53:06.274Z,94.13
2022-11-19T00:54:07.459Z,95.03
2022-11-19T00:55:07.670Z,94.51
2022-11-19T00:56:08.349Z,93.99
2022-11-19T00:57:08.564Z,94.40
2022-11-19T00:58:08.721Z,93.88
2022-11-19T00:59:08.906Z,93.68
2022-11-19T01:00:09.574Z,93.57
2022-11-19T01:01:07.981Z,93.78
2022-11-19T01:02:08.264Z,93.88
2022-11-19T01:03:08.564Z,94.30
2022-11-19T01:04:10.757Z,94.09
2022-11-19T01:05:10.947Z,94.03
2022-11-19T01:06:09.446Z,94.24
2022-11-19T01:07:09.829Z,94.38
2022-11-19T01:08:10.074Z,94.76
2022-11-19T01:09:12.267Z,94.76
2022-11-19T01:10:10.873Z,94.65
2022-11-19T01:11:10.941Z,94.76
2022-11-19T01:12:11.105Z,94.45
2022-11-19T01:13:11.396Z,94.76
2022-11-19T01:14:13.586Z,94.92
2022-11-19T01:15:11.947Z,94.71
2022-11-19T01:16:12.237Z,94.20
2022-11-19T01:17:12.529Z,94.46
2022-11-19T01:18:12.819Z,94.26
2022-11-19T01:19:15.009Z,93.84
2022-11-19T01:20:15.230Z,94.05
2022-11-19T01:21:15.374Z,93.74
2022-11-19T01:22:13.988Z,93.12
2022-11-19T01:23:16.185Z,93.22
2022-11-19T01:24:16.367Z,92.80
2022-11-19T01:25:16.525Z,92.59
2022-11-19T01:26:16.723Z,92.90
2022-11-19T01:27:17.409Z,92.69
2022-11-19T01:28:15.774Z,92.80
2022-11-19T01:29:18.266Z,92.45
2022-11-19T01:30:18.162Z,92.38
2022-11-19T01:31:18.352Z,92.28
2022-11-19T01:32:16.958Z,92.18
2022-11-19T01:33:17.247Z,92.18
2022-11-19T01:34:17.542Z,92.18
2022-11-19T01:35:19.735Z,92.38
2022-11-19T01:36:19.915Z,92.63
2022-11-19T01:37:18.476Z,93.16
2022-11-19T01:38:18.710Z,93.16
2022-11-19T01:39:19.406Z,93.47
2022-11-19T01:40:21.340Z,93.16
2022-11-19T01:41:21.365Z,93.57
2022-11-19T01:42:19.891Z,94.30
2022-11-19T01:43:20.174Z,93.78
2022-11-19T01:44:20.509Z,93.68
2022-11-19T01:45:22.841Z,93.68
2022-11-19T01:46:22.854Z,93.78
2022-11-19T01:47:21.361Z,94.26
2022-11-19T01:48:21.651Z,93.84
2022-11-19T01:49:22.140Z,93.43
2022-11-19T01:50:25.122Z,93.32
2022-11-19T01:51:25.311Z,93.37
2022-11-19T01:52:22.807Z,94.09
2022-11-19T01:53:23.100Z,94.05
2022-11-19T01:54:23.393Z,94.05
2022-11-19T01:55:24.476Z,93.63
2022-11-19T01:56:25.868Z,93.32
2022-11-19T01:57:24.234Z,93.32
2022-11-19T01:58:25.519Z,93.22
2022-11-19T01:59:24.873Z,92.84
2022-11-19T02:00:25.170Z,93.16
2022-11-19T02:01:27.380Z,92.94
2022-11-19T02:02:25.722Z,93.05
2022-11-19T02:03:27.919Z,92.69
2022-11-19T02:04:26.285Z,92.28
2022-11-19T02:05:26.578Z,91.86
2022-11-19T02:06:28.772Z,91.60
2022-11-19T02:07:27.179Z,91.70
2022-11-19T02:08:28.348Z,91.60
2022-11-19T02:09:29.651Z,91.80
2022-11-19T02:10:28.928Z,92.32
2022-11-19T02:11:30.280Z,92.18
2022-11-19T02:12:28.532Z,92.59
2022-11-19T02:13:28.829Z,92.59
2022-11-19T02:14:29.131Z,92.38
2022-11-19T02:15:31.309Z,92.59
2022-11-19T02:16:31.561Z,92.18
2022-11-19T02:17:29.930Z,92.59
2022-11-19T02:18:30.219Z,92.49
2022-11-19T02:19:30.521Z,92.38
2022-11-19T02:20:30.813Z,92.80
2022-11-19T02:21:31.981Z,92.66
2022-11-19T02:22:31.566Z,92.49
2022-11-19T02:23:31.567Z,92.53
2022-11-19T02:24:33.763Z,92.94
2022-11-19T02:25:32.129Z,93.16
2022-11-19T02:26:32.432Z,92.99
2022-11-19T02:27:34.609Z,93.93
2022-11-19T02:28:32.993Z,94.24
2022-11-19T02:29:35.171Z,94.55
2022-11-19T02:30:33.542Z,94.86
2022-11-19T02:31:35.740Z,95.17
2022-11-19T02:32:34.102Z,94.71
2022-11-19T02:33:34.392Z,94.61
2022-11-19T02:34:34.758Z,94.61
2022-11-19T02:35:36.872Z,94.86
2022-11-19T02:36:37.049Z,95.07
2022-11-19T02:37:35.536Z,95.07
2022-11-19T02:38:37.746Z,95.13
2022-11-19T02:39:37.939Z,95.07
2022-11-19T02:40:38.198Z,95.03
2022-11-19T02:41:38.385Z,94.82
2022-11-19T02:42:38.574Z,94.67
2022-11-19T02:43:39.245Z,94.78
2022-11-19T02:44:37.609Z,94.42
2022-11-19T02:45:39.799Z,94.01
2022-11-19T02:46:40.091Z,93.95
2022-11-19T02:47:40.181Z,93.74
2022-11-19T02:48:40.373Z,93.84
2022-11-19T02:49:39.114Z,94.20
2022-11-19T02:50:41.295Z,94.20
2022-11-19T02:51:40.654Z,94.20
2022-11-19T02:52:40.026Z,94.51
2022-11-19T02:53:42.189Z,94.61
2022-11-19T02:54:40.564Z,94.57
2022-11-19T02:55:42.229Z,94.51
2022-11-19T02:56:42.925Z,94.61
2022-11-19T02:57:43.113Z,94.92
2022-11-19T02:58:43.300Z,94.71
2022-11-19T02:59:43.990Z,94.82
2022-11-19T03:00:44.203Z,95.29
2022-11-19T03:01:42.719Z,94.98
2022-11-19T03:02:44.910Z,94.57
2022-11-19T03:03:45.058Z,94.26
2022-11-19T03:04:45.253Z,94.05
2022-11-19T03:05:45.449Z,94.15
2022-11-19T03:06:46.121Z,94.36
2022-11-19T03:07:46.314Z,94.46
2022-11-19T03:08:46.510Z,94.15
2022-11-19T03:09:46.737Z,94.15
2022-11-19T03:10:47.385Z,93.95
2022-11-19T03:11:47.561Z,93.95
2022-11-19T03:12:47.757Z,94.05
2022-11-19T03:13:47.941Z,93.95
2022-11-19T03:14:48.633Z,94.05
2022-11-19T03:15:49.083Z,94.05
2022-11-19T03:16:47.348Z,94.05
2022-11-19T03:17:49.520Z,93.88
2022-11-19T03:18:47.896Z,94.20
2022-11-19T03:19:50.080Z,94.20
2022-11-19T03:20:48.455Z,94.30
2022-11-19T03:21:48.796Z,93.99
2022-11-19T03:22:49.095Z,93.99
2022-11-19T03:23:51.281Z,93.88
2022-11-19T03:24:49.679Z,93.99
2022-11-19T03:25:51.821Z,93.99
2022-11-19T03:26:50.324Z,93.78
2022-11-19T03:27:52.489Z,93.78
2022-11-19T03:28:52.675Z,93.57
2022-11-19T03:29:52.876Z,93.41
2022-11-19T03:30:51.492Z,93.72
2022-11-19T03:31:53.674Z,93.51
2022-11-19T03:32:52.049Z,93.20
2022-11-19T03:33:54.226Z,92.99
2022-11-19T03:34:52.605Z,92.82
2022-11-19T03:35:54.802Z,91.99
2022-11-19T03:36:55.014Z,92.10
2022-11-19T03:37:53.507Z,92.14
2022-11-19T03:38:55.700Z,92.55
2022-11-19T03:39:54.063Z,92.35
2022-11-19T03:40:54.375Z,92.55
2022-11-19T03:41:56.566Z,92.55
2022-11-19T03:42:57.727Z,92.80
2022-11-19T03:43:57.902Z,93.64
2022-11-19T03:44:55.551Z,93.85
2022-11-19T03:45:55.831Z,93.95
2022-11-19T03:46:56.126Z,93.95
2022-11-19T03:47:56.420Z,94.16
2022-11-19T03:48:58.603Z,94.32
2022-11-19T03:49:56.972Z,94.32
2022-11-19T03:50:59.164Z,94.32
2022-11-19T03:51:57.528Z,94.32
2022-11-19T03:53:01.349Z,94.06
2022-11-19T03:53:59.134Z,93.91
2022-11-19T03:55:00.327Z,93.39
2022-11-19T03:56:00.508Z,93.33
2022-11-19T03:56:59.011Z,93.43
2022-11-19T03:57:59.311Z,93.64
2022-11-19T03:58:59.606Z,93.54
2022-11-19T03:59:59.895Z,93.33
2022-11-19T04:01:02.093Z,93.23
2022-11-19T04:02:00.494Z,93.23
2022-11-19T04:03:01.691Z,93.43
2022-11-19T04:04:01.856Z,93.33
2022-11-19T04:05:02.274Z,93.23
2022-11-19T04:06:03.519Z,92.80
2022-11-19T04:07:03.767Z,93.33
2022-11-19T04:08:02.219Z,93.01
2022-11-19T04:09:04.404Z,92.70
2022-11-19T04:10:02.777Z,92.49
2022-11-19T04:11:42.785Z,92.49
2022-11-19T04:12:43.339Z,92.29
2022-11-19T04:13:43.529Z,92.39
2022-11-19T04:14:43.729Z,92.39
2022-11-19T04:15:43.925Z,92.12
2022-11-19T04:16:44.601Z,92.43
2022-11-19T04:17:44.788Z,92.64
2022-11-19T04:18:44.984Z,92.54
2022-11-19T04:19:45.158Z,92.22
2022-11-19T04:20:43.891Z,92.02
2022-11-19T04:21:46.077Z,92.33
2022-11-19T04:22:44.450Z,92.27
2022-11-19T04:23:45.648Z,92.47
2022-11-19T04:24:45.010Z,92.54
2022-11-19T04:25:45.290Z,92.54
2022-11-19T04:26:45.591Z,92.47
2022-11-19T04:27:45.876Z,92.37
2022-11-19T04:28:48.065Z,92.58
2022-11-19T04:29:46.437Z,92.58
2022-11-19T04:30:48.620Z,92.58
2022-11-19T04:31:46.993Z,92.89
2022-11-19T04:32:49.180Z,92.99
2022-11-19T04:33:47.606Z,92.79
2022-11-19T04:34:49.731Z,92.99
2022-11-19T04:35:49.901Z,92.79
2022-11-19T04:36:48.389Z,92.79
2022-11-19T04:37:48.672Z,92.68
2022-11-19T04:38:48.961Z,92.58
2022-11-19T04:39:52.091Z,92.47
2022-11-19T04:40:49.482Z,91.89
2022-11-19T04:41:49.764Z,91.78
2022-11-19T04:42:52.919Z,92.21
2022-11-19T04:43:50.284Z,92.31
2022-11-19T04:44:52.464Z,92.31
2022-11-19T04:45:50.827Z,92.52
2022-11-19T04:46:51.120Z,92.72
2022-11-19T04:47:53.306Z,92.72
2022-11-19T04:48:51.672Z,92.93
2022-11-19T04:49:53.856Z,93.04
2022-11-19T04:50:52.224Z,92.72
2022-11-19T04:51:52.630Z,93.04
2022-11-19T04:52:52.763Z,93.04
2022-11-19T04:53:53.059Z,92.83
2022-11-19T04:54:53.357Z,92.89
2022-11-19T04:55:55.527Z,92.89
2022-11-19T04:56:53.902Z,92.68
2022-11-19T04:57:55.132Z,92.68
2022-11-19T04:58:56.377Z,92.31
2022-11-19T04:59:55.693Z,92.72
2022-11-19T05:00:56.947Z,92.62
2022-11-19T05:01:55.418Z,92.72
2022-11-19T05:02:57.499Z,92.52
2022-11-19T05:03:55.878Z,92.41
2022-11-19T05:04:58.074Z,92.00
2022-11-19T05:05:56.455Z,91.47
2022-11-19T05:06:56.788Z,90.95
2022-11-19T05:07:58.927Z,91.06
2022-11-19T05:08:57.301Z,91.16
2022-11-19T05:09:57.592Z,91.68
2022-11-19T05:10:59.802Z,91.37
2022-11-19T05:11:58.130Z,91.89
2022-11-19T05:12:58.422Z,91.58
2022-11-19T05:13:58.709Z,91.68
2022-11-19T05:14:59.010Z,91.89
2022-11-19T05:16:01.178Z,91.78
2022-11-19T05:16:59.544Z,91.78
2022-11-19T05:17:59.840Z,91.47
2022-11-19T05:19:00.129Z,91.58
2022-11-19T05:20:00.421Z,91.37
2022-11-19T05:21:00.712Z,91.27
2022-11-19T05:22:02.194Z,91.16
2022-11-19T05:23:01.334Z,91.37
2022-11-19T05:24:01.576Z,91.37
2022-11-19T05:25:01.872Z,91.16
2022-11-19T05:26:04.036Z,91.20
2022-11-19T05:27:04.223Z,91.41
2022-11-19T05:28:04.422Z,91.31
2022-11-19T05:29:03.027Z,91.37
2022-11-19T05:30:03.306Z,91.16
2022-11-19T05:31:03.592Z,91.31
2022-11-19T05:32:05.770Z,91.20
2022-11-19T05:33:04.144Z,91.20
2022-11-19T05:34:06.322Z,91.52
2022-11-19T05:35:04.688Z,91.41
2022-11-19T05:36:04.972Z,91.10
2022-11-19T05:37:05.270Z,91.20
2022-11-19T05:38:05.557Z,91.31
2022-11-19T05:39:07.715Z,91.20
2022-11-19T05:40:07.896Z,91.20
2022-11-19T05:41:08.092Z,91.20
2022-11-19T05:42:08.277Z,91.25
2022-11-19T05:43:08.972Z,91.56
2022-11-19T05:44:09.162Z,91.87
2022-11-19T05:45:09.344Z,92.18
2022-11-19T05:46:07.948Z,92.18
2022-11-19T05:47:10.115Z,92.29
2022-11-19T05:48:10.268Z,92.08
2022-11-19T05:49:10.432Z,91.77
2022-11-19T05:50:10.618Z,91.91
2022-11-19T05:51:10.992Z,92.22
2022-11-19T05:52:11.346Z,92.29
2022-11-19T05:53:11.532Z,92.22
2022-11-19T05:54:11.740Z,92.18
2022-11-19T05:55:12.403Z,92.12
2022-11-19T05:56:12.577Z,91.85
2022-11-19T05:57:11.074Z,92.37
2022-11-19T05:58:13.256Z,92.73
2022-11-19T05:59:13.414Z,93.15
2022-11-19T06:00:13.592Z,93.67
2022-11-19T06:01:12.213Z,93.52
2022-11-19T06:02:12.508Z,93.52
2022-11-19T06:03:14.726Z,93.63
2022-11-19T06:04:13.060Z,93.63
2022-11-19T06:05:15.257Z,93.31
2022-11-19T06:06:15.428Z,93.52
2022-11-19T06:07:15.638Z,93.41
2022-11-19T06:08:15.782Z,93.41
2022-11-19T06:09:16.488Z,93.63
2022-11-19T06:10:16.678Z,93.63
2022-11-19T06:11:16.881Z,93.84
2022-11-19T06:12:17.043Z,94.09
2022-11-19T06:13:17.705Z,94.25
2022-11-19T06:14:17.861Z,94.40
2022-11-19T06:15:18.023Z,94.57
2022-11-19T06:16:18.200Z,94.46
2022-11-19T06:17:18.891Z,94.00
2022-11-19T06:18:19.103Z,93.69
2022-11-19T06:19:20.916Z,93.16
2022-11-19T06:20:17.866Z,92.69
2022-11-19T06:21:20.054Z,92.16
2022-11-19T06:22:20.316Z,91.75
2022-11-19T06:23:20.481Z,91.27
2022-11-19T06:24:20.640Z,90.37
2022-11-19T06:25:19.247Z,90.58
2022-11-19T06:26:21.421Z,90.58
2022-11-19T06:27:19.783Z,91.98
2022-11-19T06:28:21.967Z,93.19
2022-11-19T06:29:22.458Z,94.23
2022-11-19T06:30:20.646Z,93.44
2022-11-19T06:31:24.291Z,93.71
2022-11-19T06:32:21.190Z,93.29
2022-11-19T06:33:21.503Z,92.94
2022-11-19T06:34:23.672Z,92.31
2022-11-19T06:35:22.048Z,91.62
2022-11-19T06:36:22.776Z,91.41
2022-11-19T06:37:22.670Z,91.25
2022-11-19T06:38:22.966Z,92.19
2022-11-19T06:39:23.410Z,93.02
2022-11-19T06:40:25.439Z,93.33
2022-11-19T06:41:23.810Z,93.29
2022-11-19T06:42:24.980Z,93.29
2022-11-19T06:43:24.338Z,93.40
2022-11-19T06:44:24.638Z,93.29
2022-11-19T06:45:26.812Z,93.35
2022-11-19T06:46:25.196Z,93.04
2022-11-19T06:47:25.519Z,92.94
2022-11-19T06:48:27.711Z,92.66
2022-11-19T06:49:26.211Z,92.66
2022-11-19T06:50:28.269Z,92.31
2022-11-19T06:51:26.654Z,91.89
2022-11-19T06:52:26.967Z,91.79
2022-11-19T06:53:27.282Z,91.79
2022-11-19T06:54:27.605Z,91.16
2022-11-19T06:55:29.784Z,91.16
2022-11-19T06:56:29.959Z,91.16
2022-11-19T06:57:28.470Z,90.95
2022-11-19T06:58:29.691Z,90.64
2022-11-19T06:59:30.016Z,90.95
2022-11-19T07:00:29.398Z,89.70
2022-11-19T07:01:31.593Z,90.22
2022-11-19T07:02:29.961Z,90.22
2022-11-19T07:03:30.278Z,90.33
2022-11-19T07:04:30.598Z,90.12
2022-11-19T07:05:32.775Z,90.12
2022-11-19T07:06:32.964Z,90.26
2022-11-19T07:07:31.506Z,91.00
2022-11-19T07:08:31.789Z,91.41
2022-11-19T07:09:32.100Z,91.83
2022-11-19T07:10:32.419Z,91.89
2022-11-19T07:11:34.593Z,91.94
2022-11-19T07:12:34.774Z,92.52
2022-11-19T07:13:33.285Z,92.73
2022-11-19T07:14:33.789Z,92.83
2022-11-19T07:15:33.943Z,92.94
2022-11-19T07:16:34.265Z,92.94
2022-11-19T07:17:36.440Z,93.15
2022-11-19T07:18:34.829Z,93.46
2022-11-19T07:19:35.168Z,93.46
2022-11-19T07:20:35.386Z,93.57
2022-11-19T07:21:35.704Z,93.35
2022-11-19T07:22:37.891Z,93.21
2022-11-19T07:23:36.293Z,93.10
2022-11-19T07:24:38.491Z,92.90
2022-11-19T07:25:38.674Z,92.83
2022-11-19T07:26:38.861Z,93.15
2022-11-19T07:27:38.053Z,93.21
2022-11-19T07:28:39.562Z,93.10
2022-11-19T07:29:39.751Z,93.00
2022-11-19T07:30:39.943Z,92.90
2022-11-19T07:31:40.631Z,92.79
2022-11-19T07:32:40.820Z,92.69
2022-11-19T07:33:41.020Z,92.47
2022-11-19T07:34:39.646Z,92.47
2022-11-19T07:35:39.984Z,92.27
2022-11-19T07:36:42.164Z,92.37
2022-11-19T07:37:40.563Z,92.16
2022-11-19T07:38:42.745Z,92.16
2022-11-19T07:39:42.941Z,92.37
2022-11-19T07:40:41.483Z,92.47
2022-11-19T07:41:42.809Z,92.27
2022-11-19T07:42:44.000Z,92.37
2022-11-19T07:43:44.190Z,92.58
2022-11-19T07:44:44.360Z,92.58
2022-11-19T07:45:44.510Z,92.58
2022-11-19T07:46:45.193Z,92.58
2022-11-19T07:47:45.381Z,92.63
2022-11-19T07:48:45.574Z,92.73
2022-11-19T07:49:45.752Z,92.73
2022-11-19T07:50:44.525Z,92.73
2022-11-19T07:51:46.694Z,92.73
2022-11-19T07:52:46.856Z,92.73
2022-11-19T07:53:47.012Z,92.94
2022-11-19T07:54:47.202Z,93.10
2022-11-19T07:55:47.882Z,93.00
2022-11-19T07:56:48.036Z,92.90
2022-11-19T07:57:48.191Z,92.90
2022-11-19T07:58:48.365Z,92.90
2022-11-19T07:59:49.041Z,92.69
2022-11-19T08:00:49.226Z,92.47
2022-11-19T08:01:47.858Z,92.90
2022-11-19T08:02:49.976Z,92.90
2022-11-19T08:03:53.210Z,93.00
2022-11-19T08:04:49.590Z,92.83
2022-11-19T08:05:48.855Z,93.21
2022-11-19T08:06:51.092Z,92.96
2022-11-19T08:07:49.514Z,92.75
2022-11-19T08:08:49.845Z,92.44
2022-11-19T08:09:50.182Z,92.33
2022-11-19T08:10:50.523Z,92.54
2022-11-19T08:11:50.860Z,91.87
2022-11-19T08:12:53.041Z,91.97
2022-11-19T08:13:53.242Z,91.77
2022-11-19T08:14:53.436Z,91.35
2022-11-19T08:15:53.621Z,90.93
2022-11-19T08:16:54.336Z,91.14
2022-11-19T08:17:54.502Z,91.50
2022-11-19T08:18:53.039Z,91.60
2022-11-19T08:19:55.225Z,91.97
2022-11-19T08:20:55.402Z,92.18
2022-11-19T08:21:53.930Z,92.35
2022-11-19T08:22:56.128Z,91.93
2022-11-19T08:23:54.533Z,91.68
2022-11-19T08:24:56.735Z,91.47
2022-11-19T08:25:56.905Z,91.37
2022-11-19T08:26:57.095Z,91.16
2022-11-19T08:27:55.746Z,91.58
2022-11-19T08:28:56.092Z,91.37
2022-11-19T08:29:56.307Z,91.89
2022-11-19T08:30:56.639Z,92.14
2022-11-19T08:31:56.971Z,92.21
2022-11-19T08:33:00.126Z,92.06
2022-11-19T08:33:57.530Z,91.78
2022-11-19T08:34:57.866Z,91.89
2022-11-19T08:36:00.058Z,91.89
2022-11-19T08:36:59.417Z,91.78
2022-11-19T08:38:00.647Z,92.10
2022-11-19T08:39:00.016Z,92.06
2022-11-19T08:40:00.192Z,92.16
2022-11-19T08:41:00.540Z,92.37
2022-11-19T08:41:59.800Z,91.96
2022-11-19T08:43:01.998Z,91.85
2022-11-19T08:44:00.394Z,91.91
2022-11-19T08:45:00.732Z,91.64
2022-11-19T08:46:01.067Z,91.64
2022-11-19T08:47:03.252Z,92.02
2022-11-19T08:48:01.654Z,91.81
2022-11-19T08:49:03.841Z,91.71
2022-11-19T08:50:02.241Z,91.60
2022-11-19T08:51:02.573Z,91.56
2022-11-19T08:52:02.902Z,91.33
2022-11-19T08:53:05.087Z,91.96
2022-11-19T08:54:05.263Z,91.81
2022-11-19T08:55:03.793Z,91.75
2022-11-19T08:56:04.139Z,91.75
2022-11-19T08:57:04.464Z,91.85
2022-11-19T08:58:06.638Z,92.06
2022-11-19T08:59:06.807Z,91.96
2022-11-19T09:00:06.466Z,91.96
2022-11-19T09:01:05.714Z,91.85
2022-11-19T09:02:05.887Z,92.06
2022-11-19T09:03:08.055Z,92.16
2022-11-19T09:04:08.231Z,91.96
2022-11-19T09:05:09.570Z,92.06
2022-11-19T09:06:08.098Z,91.96
2022-11-19T09:07:07.384Z,92.16
2022-11-19T09:08:09.541Z,92.02
2022-11-19T09:09:09.725Z,91.96
2022-11-19T09:10:08.246Z,92.47
2022-11-19T09:11:08.582Z,92.58
2022-11-19T09:12:08.923Z,92.43
2022-11-19T09:13:11.109Z,92.37
2022-11-19T09:14:09.503Z,92.68
2022-11-19T09:15:09.846Z,92.58
2022-11-19T09:16:12.028Z,92.58
2022-11-19T09:17:12.214Z,92.47
2022-11-19T09:18:12.403Z,92.47
2022-11-19T09:19:12.585Z,92.47
2022-11-19T09:20:13.269Z,92.68
2022-11-19T09:21:13.454Z,92.99
2022-11-19T09:22:13.612Z,92.99
2022-11-19T09:23:13.774Z,92.99
2022-11-19T09:24:14.452Z,93.10
2022-11-19T09:25:14.646Z,92.89
2022-11-19T09:26:14.834Z,93.35
2022-11-19T09:27:15.026Z,93.41
2022-11-19T09:28:15.684Z,93.52
2022-11-19T09:29:15.852Z,93.31
2022-11-19T09:30:16.007Z,93.52
2022-11-19T09:31:16.168Z,93.52
2022-11-19T09:32:19.948Z,93.62
2022-11-19T09:33:16.277Z,93.31
2022-11-19T09:34:17.696Z,93.83
2022-11-19T09:35:17.645Z,93.79
2022-11-19T09:36:17.838Z,93.58
2022-11-19T09:37:18.033Z,93.58
2022-11-19T09:38:18.222Z,93.58
2022-11-19T09:39:18.906Z,93.48
2022-11-19T09:40:19.090Z,93.54
2022-11-19T09:41:19.283Z,93.33
2022-11-19T09:42:19.487Z,93.12
2022-11-19T09:43:20.165Z,93.18
2022-11-19T09:44:20.509Z,93.18
2022-11-19T09:45:18.833Z,93.18
2022-11-19T09:46:19.164Z,92.97
2022-11-19T09:47:19.497Z,93.07
2022-11-19T09:48:19.827Z,93.24
2022-11-19T09:49:22.013Z,93.14
2022-11-19T09:50:22.173Z,92.78
2022-11-19T09:51:22.337Z,92.57
2022-11-19T09:52:22.497Z,92.74
2022-11-19T09:53:23.201Z,92.11
2022-11-19T09:54:23.376Z,92.11
2022-11-19T09:55:23.594Z,91.91
2022-11-19T09:56:23.784Z,91.80
2022-11-19T09:57:24.485Z,91.70
2022-11-19T09:58:24.675Z,91.28
2022-11-19T09:59:24.863Z,91.70
2022-11-19T10:00:25.104Z,91.60
2022-11-19T10:01:25.745Z,91.70
2022-11-19T10:02:25.905Z,92.11
2022-11-19T10:03:31.609Z,91.86
2022-11-19T10:04:27.285Z,91.62
2022-11-19T10:05:24.957Z,91.58
2022-11-19T10:06:27.144Z,90.95
2022-11-19T10:07:25.495Z,90.85
2022-11-19T10:08:27.622Z,90.54
2022-11-19T10:09:27.340Z,90.89
2022-11-19T10:10:26.363Z,90.44
2022-11-19T10:11:29.518Z,90.17
2022-11-19T10:12:29.689Z,90.06
2022-11-19T10:13:27.238Z,90.06
2022-11-19T10:14:29.415Z,90.02
2022-11-19T10:15:34.501Z,89.77
2022-11-19T10:16:30.107Z,89.62
2022-11-19T10:17:30.347Z,88.46
2022-11-19T10:18:28.649Z,87.15
2022-11-19T10:19:30.866Z,86.01
2022-11-19T10:20:29.272Z,85.18
2022-11-19T10:21:30.456Z,84.22
2022-11-19T10:22:31.677Z,84.88
2022-11-19T10:23:29.961Z,85.44
2022-11-19T10:24:30.375Z,86.65
2022-11-19T10:25:30.583Z,86.15
2022-11-19T10:26:30.939Z,85.45
2022-11-19T10:27:33.123Z,83.97
2022-11-19T10:28:31.537Z,82.69
2022-11-19T10:29:33.726Z,82.52
2022-11-19T10:30:32.141Z,82.07
2022-11-19T10:31:32.488Z,81.82
2022-11-19T10:32:34.678Z,81.96
2022-11-19T10:33:33.887Z,81.51
2022-11-19T10:34:35.290Z,81.10
2022-11-19T10:35:34.657Z,81.00
2022-11-19T10:36:34.874Z,80.96
2022-11-19T10:37:36.118Z,80.30
2022-11-19T10:38:35.195Z,79.75
2022-11-19T10:39:34.719Z,79.03
2022-11-19T10:40:36.906Z,79.11
2022-11-19T10:41:35.339Z,79.62
2022-11-19T10:42:37.513Z,80.00
2022-11-19T10:43:37.676Z,79.07
2022-11-19T10:44:36.217Z,79.41
2022-11-19T10:45:38.408Z,79.90
2022-11-19T10:46:36.822Z,80.06
2022-11-19T10:47:37.175Z,79.30
2022-11-19T10:48:37.399Z,78.76
2022-11-19T10:49:37.749Z,79.14
2022-11-19T10:50:39.941Z,79.27
2022-11-19T10:51:38.233Z,78.20
2022-11-19T10:52:38.457Z,77.42
2022-11-19T10:53:40.645Z,78.17
2022-11-19T10:54:39.061Z,78.52
2022-11-19T10:55:41.250Z,78.48
2022-11-19T10:56:39.666Z,78.58
2022-11-19T10:57:40.015Z,78.38
2022-11-19T10:58:40.525Z,78.17
2022-11-19T10:59:40.540Z,78.86
2022-11-19T11:00:42.776Z,77.97
2022-11-19T11:01:42.908Z,78.10
2022-11-19T11:02:41.450Z,77.79
2022-11-19T11:03:41.679Z,76.73
2022-11-19T11:04:41.907Z,76.93
2022-11-19T11:05:42.128Z,77.93
2022-11-19T11:06:44.318Z,78.92
2022-11-19T11:07:49.726Z,77.96
2022-11-19T11:08:45.647Z,77.62
2022-11-19T11:09:45.328Z,76.11
2022-11-19T11:10:45.520Z,75.97
2022-11-19T11:11:45.710Z,75.46
2022-11-19T11:12:45.920Z,75.84
2022-11-19T11:13:46.564Z,75.97
2022-11-19T11:14:46.772Z,75.87
2022-11-19T11:15:46.955Z,75.97
2022-11-19T11:16:47.122Z,76.21
2022-11-19T11:17:47.307Z,75.59
2022-11-19T11:18:46.101Z,76.25
2022-11-19T11:19:46.330Z,76.21
2022-11-19T11:20:46.562Z,75.70
2022-11-19T11:21:46.789Z,76.38
2022-11-19T11:22:48.965Z,76.31
2022-11-19T11:23:49.148Z,75.08
2022-11-19T11:24:49.337Z,75.63
2022-11-19T11:25:49.520Z,74.77
2022-11-19T11:26:49.713Z,74.91
2022-11-19T11:27:50.396Z,73.68
2022-11-19T11:28:50.826Z,72.06
2022-11-19T11:29:50.784Z,73.36
2022-11-19T11:30:50.960Z,74.50
2022-11-19T11:31:51.639Z,74.98
2022-11-19T11:32:51.961Z,75.29
2022-11-19T11:33:52.024Z,74.67
2022-11-19T11:34:52.214Z,73.85
2022-11-19T11:35:52.903Z,74.15
2022-11-19T11:36:53.209Z,73.78
2022-11-19T11:37:53.254Z,73.91
2022-11-19T11:38:53.432Z,73.78
2022-11-19T11:39:54.120Z,73.50
2022-11-19T11:41:11.685Z,72.92
2022-11-19T11:42:05.587Z,74.43
2022-11-19T11:42:56.096Z,74.53
2022-11-19T11:43:55.273Z,73.64
2022-11-19T11:44:53.692Z,72.68
2022-11-19T11:45:55.843Z,72.89
2022-11-19T11:46:56.049Z,73.27
2022-11-19T11:47:56.237Z,72.82
2022-11-19T11:49:00.998Z,71.69
2022-11-19T11:49:56.216Z,71.90
2022-11-19T11:50:57.393Z,72.14
2022-11-19T11:51:57.592Z,71.72
2022-11-19T11:52:57.804Z,71.62
2022-11-19T11:53:58.472Z,71.48
2022-11-19T11:54:58.640Z,72.44
2022-11-19T11:55:57.055Z,71.69
2022-11-19T11:56:59.259Z,70.29
2022-11-19T11:57:59.457Z,71.31
2022-11-19T11:58:59.635Z,71.66
2022-11-19T11:59:59.829Z,70.32
2022-11-19T12:01:00.021Z,70.42
2022-11-19T12:01:58.857Z,71.21
2022-11-19T12:03:01.035Z,72.31
2022-11-19T12:03:59.327Z,71.52
2022-11-19T12:05:01.517Z,72.24
2022-11-19T12:05:59.932Z,73.02
2022-11-19T12:07:00.206Z,73.57
2022-11-19T12:08:02.347Z,74.98
2022-11-19T12:09:00.652Z,72.38
2022-11-19T12:10:02.835Z,72.10
2022-11-19T12:11:01.132Z,72.20
2022-11-19T12:12:01.353Z,74.12
2022-11-19T12:13:01.708Z,74.57
2022-11-19T12:14:03.432Z,73.91
2022-11-19T12:15:02.256Z,73.71
2022-11-19T12:16:05.884Z,72.82
2022-11-19T12:17:02.697Z,74.43
2022-11-19T12:18:02.919Z,75.76
2022-11-19T12:19:03.268Z,75.63
2022-11-19T12:20:04.408Z,74.70
2022-11-19T12:21:10.188Z,75.15
2022-11-19T12:22:05.138Z,76.25
2022-11-19T12:23:04.426Z,77.38
2022-11-19T12:24:04.646Z,79.07
2022-11-19T12:25:04.993Z,81.07
2022-11-19T12:26:07.171Z,81.58
2022-11-19T12:27:05.463Z,81.93
2022-11-19T12:28:05.807Z,82.24
2022-11-19T12:29:07.978Z,82.96
2022-11-19T12:30:06.392Z,82.92
2022-11-19T12:31:08.601Z,82.51
2022-11-19T12:32:07.003Z,82.61
2022-11-19T12:33:07.232Z,82.20
2022-11-19T12:34:07.569Z,81.27
2022-11-19T12:35:08.858Z,81.31
2022-11-19T12:36:10.109Z,81.72
2022-11-19T12:37:08.534Z,81.31
2022-11-19T12:38:08.752Z,81.00
2022-11-19T12:39:09.109Z,79.93
2022-11-19T12:40:11.320Z,79.76
2022-11-19T12:41:11.451Z,80.07
2022-11-19T12:42:09.864Z,79.97
2022-11-19T12:43:10.274Z,80.32
2022-11-19T12:44:10.443Z,80.97
2022-11-19T12:45:10.800Z,82.10
2022-11-19T12:46:11.983Z,82.10
2022-11-19T12:47:11.384Z,81.28
2022-11-19T12:48:11.701Z,81.80
2022-11-19T12:49:12.042Z,82.21
2022-11-19T12:50:12.416Z,82.76
2022-11-19T12:51:14.573Z,82.45
2022-11-19T12:52:14.765Z,82.70
2022-11-19T12:53:13.175Z,82.39
2022-11-19T12:54:16.354Z,83.25
2022-11-19T12:55:13.857Z,83.56
2022-11-19T12:56:14.191Z,83.71
2022-11-19T12:57:16.393Z,83.81